sensor_id;sensor_type;location;lat;lon;timestamp;temperature;humidity
32506;DHT22;18955;51.224;8.482;2023-05-07T00:00:58;13.60;85.30
32506;DHT22;18955;51.224;8.482;2023-05-07T00:03:25;13.60;85.30
32506;DHT22;18955;51.224;8.482;2023-05-07T00:05:52;13.50;85.30
32506;DHT22;18955;51.224;8.482;2023-05-07T00:08:19;13.50;85.30
32506;DHT22;18955;51.224;8.482;2023-05-07T00:10:45;13.50;85.30
32506;DHT22;18955;51.224;8.482;2023-05-07T00:13:12;13.50;85.40
32506;DHT22;18955;51.224;8.482;2023-05-07T00:15:38;13.50;85.40
32506;DHT22;18955;51.224;8.482;2023-05-07T00:18:05;13.50;85.40
32506;DHT22;18955;51.224;8.482;2023-05-07T00:20:31;13.40;85.40
32506;DHT22;18955;51.224;8.482;2023-05-07T00:22:57;13.40;85.40
32506;DHT22;18955;51.224;8.482;2023-05-07T00:25:23;13.40;85.40
32506;DHT22;18955;51.224;8.482;2023-05-07T00:27:49;13.40;85.30
32506;DHT22;18955;51.224;8.482;2023-05-07T00:30:16;13.40;85.30
32506;DHT22;18955;51.224;8.482;2023-05-07T00:32:42;13.40;85.30
32506;DHT22;18955;51.224;8.482;2023-05-07T00:35:11;13.40;85.30
32506;DHT22;18955;51.224;8.482;2023-05-07T00:37:38;13.30;85.40
32506;DHT22;18955;51.224;8.482;2023-05-07T00:40:04;13.30;85.40
32506;DHT22;18955;51.224;8.482;2023-05-07T00:42:33;13.30;85.40
32506;DHT22;18955;51.224;8.482;2023-05-07T00:44:59;13.30;85.40
32506;DHT22;18955;51.224;8.482;2023-05-07T00:47:26;13.30;85.50
32506;DHT22;18955;51.224;8.482;2023-05-07T00:49:52;13.30;85.40
32506;DHT22;18955;51.224;8.482;2023-05-07T00:52:20;13.30;85.40
32506;DHT22;18955;51.224;8.482;2023-05-07T00:54:48;13.30;85.40
32506;DHT22;18955;51.224;8.482;2023-05-07T00:57:14;13.20;85.30
32506;DHT22;18955;51.224;8.482;2023-05-07T00:59:41;13.20;85.90
32506;DHT22;18955;51.224;8.482;2023-05-07T01:02:07;13.20;85.40
32506;DHT22;18955;51.224;8.482;2023-05-07T01:04:34;13.20;85.40
32506;DHT22;18955;51.224;8.482;2023-05-07T01:07:01;13.20;85.50
32506;DHT22;18955;51.224;8.482;2023-05-07T01:09:28;13.20;85.50
32506;DHT22;18955;51.224;8.482;2023-05-07T01:11:55;13.10;85.50
32506;DHT22;18955;51.224;8.482;2023-05-07T01:14:23;13.20;85.40
32506;DHT22;18955;51.224;8.482;2023-05-07T01:16:50;13.10;85.40
32506;DHT22;18955;51.224;8.482;2023-05-07T01:19:19;13.10;85.40
32506;DHT22;18955;51.224;8.482;2023-05-07T01:21:47;13.10;85.90
32506;DHT22;18955;51.224;8.482;2023-05-07T01:24:16;13.10;85.40
32506;DHT22;18955;51.224;8.482;2023-05-07T01:26:43;13.10;85.40
32506;DHT22;18955;51.224;8.482;2023-05-07T01:29:13;13.10;85.40
32506;DHT22;18955;51.224;8.482;2023-05-07T01:31:40;13.10;85.40
32506;DHT22;18955;51.224;8.482;2023-05-07T01:34:08;13.00;85.40
32506;DHT22;18955;51.224;8.482;2023-05-07T01:36:37;13.00;85.50
32506;DHT22;18955;51.224;8.482;2023-05-07T01:39:05;13.00;85.30
32506;DHT22;18955;51.224;8.482;2023-05-07T01:41:32;13.00;85.30
32506;DHT22;18955;51.224;8.482;2023-05-07T01:43:59;13.00;85.30
32506;DHT22;18955;51.224;8.482;2023-05-07T01:46:26;13.00;85.40
32506;DHT22;18955;51.224;8.482;2023-05-07T01:48:53;13.00;85.40
32506;DHT22;18955;51.224;8.482;2023-05-07T01:51:20;12.90;85.40
32506;DHT22;18955;51.224;8.482;2023-05-07T01:53:47;12.90;85.40
32506;DHT22;18955;51.224;8.482;2023-05-07T01:56:17;12.90;85.40
32506;DHT22;18955;51.224;8.482;2023-05-07T01:58:45;12.90;85.50
32506;DHT22;18955;51.224;8.482;2023-05-07T02:01:13;12.90;85.50
32506;DHT22;18955;51.224;8.482;2023-05-07T02:03:40;12.90;85.40
32506;DHT22;18955;51.224;8.482;2023-05-07T02:06:13;12.90;85.40
32506;DHT22;18955;51.224;8.482;2023-05-07T02:08:40;12.90;85.40
32506;DHT22;18955;51.224;8.482;2023-05-07T02:11:06;12.80;85.30
32506;DHT22;18955;51.224;8.482;2023-05-07T02:13:34;12.80;85.40
32506;DHT22;18955;51.224;8.482;2023-05-07T02:16:01;12.80;85.40
32506;DHT22;18955;51.224;8.482;2023-05-07T02:18:28;12.80;85.40
32506;DHT22;18955;51.224;8.482;2023-05-07T02:20:55;12.80;85.60
32506;DHT22;18955;51.224;8.482;2023-05-07T02:23:21;12.80;85.60
32506;DHT22;18955;51.224;8.482;2023-05-07T02:25:47;12.80;85.60
32506;DHT22;18955;51.224;8.482;2023-05-07T02:28:14;12.80;85.50
32506;DHT22;18955;51.224;8.482;2023-05-07T02:30:49;12.80;85.40
32506;DHT22;18955;51.224;8.482;2023-05-07T02:33:15;12.70;85.30
32506;DHT22;18955;51.224;8.482;2023-05-07T02:35:42;12.70;85.30
32506;DHT22;18955;51.224;8.482;2023-05-07T02:38:09;12.70;85.50
32506;DHT22;18955;51.224;8.482;2023-05-07T02:40:37;12.70;85.40
32506;DHT22;18955;51.224;8.482;2023-05-07T02:43:07;12.70;85.60
32506;DHT22;18955;51.224;8.482;2023-05-07T02:45:33;12.70;85.60
32506;DHT22;18955;51.224;8.482;2023-05-07T02:48:01;12.70;85.60
32506;DHT22;18955;51.224;8.482;2023-05-07T02:50:27;12.70;85.60
32506;DHT22;18955;51.224;8.482;2023-05-07T02:52:54;12.60;85.50
32506;DHT22;18955;51.224;8.482;2023-05-07T02:55:21;12.60;85.40
32506;DHT22;18955;51.224;8.482;2023-05-07T02:57:47;12.60;85.40
32506;DHT22;18955;51.224;8.482;2023-05-07T03:00:15;12.60;85.50
32506;DHT22;18955;51.224;8.482;2023-05-07T03:02:49;12.60;85.40
32506;DHT22;18955;51.224;8.482;2023-05-07T03:05:15;12.60;85.50
32506;DHT22;18955;51.224;8.482;2023-05-07T03:07:41;12.60;85.60
32506;DHT22;18955;51.224;8.482;2023-05-07T03:10:11;12.60;85.70
32506;DHT22;18955;51.224;8.482;2023-05-07T03:12:38;12.50;85.60
32506;DHT22;18955;51.224;8.482;2023-05-07T03:15:04;12.50;85.50
32506;DHT22;18955;51.224;8.482;2023-05-07T03:17:31;12.50;85.60
32506;DHT22;18955;51.224;8.482;2023-05-07T03:19:57;12.50;85.40
32506;DHT22;18955;51.224;8.482;2023-05-07T03:22:24;12.60;85.60
32506;DHT22;18955;51.224;8.482;2023-05-07T03:24:50;12.50;85.50
32506;DHT22;18955;51.224;8.482;2023-05-07T03:27:16;12.50;85.40
32506;DHT22;18955;51.224;8.482;2023-05-07T03:29:43;12.50;85.60
32506;DHT22;18955;51.224;8.482;2023-05-07T03:32:09;12.50;85.60
32506;DHT22;18955;51.224;8.482;2023-05-07T03:34:36;12.50;85.60
32506;DHT22;18955;51.224;8.482;2023-05-07T03:37:02;12.50;85.70
32506;DHT22;18955;51.224;8.482;2023-05-07T03:39:28;12.50;85.60
32506;DHT22;18955;51.224;8.482;2023-05-07T03:41:54;12.40;85.80
32506;DHT22;18955;51.224;8.482;2023-05-07T03:44:21;12.50;85.50
32506;DHT22;18955;51.224;8.482;2023-05-07T03:46:49;12.50;85.50
32506;DHT22;18955;51.224;8.482;2023-05-07T03:49:16;12.40;85.50
32506;DHT22;18955;51.224;8.482;2023-05-07T03:51:42;12.40;85.40
32506;DHT22;18955;51.224;8.482;2023-05-07T03:54:09;12.40;85.60
32506;DHT22;18955;51.224;8.482;2023-05-07T03:56:36;12.40;86.20
32506;DHT22;18955;51.224;8.482;2023-05-07T03:59:02;12.40;85.70
32506;DHT22;18955;51.224;8.482;2023-05-07T04:01:29;12.40;85.80
32506;DHT22;18955;51.224;8.482;2023-05-07T04:03:56;12.40;85.70
32506;DHT22;18955;51.224;8.482;2023-05-07T04:06:23;12.40;85.80
32506;DHT22;18955;51.224;8.482;2023-05-07T04:08:49;12.30;85.50
32506;DHT22;18955;51.224;8.482;2023-05-07T04:11:16;12.40;85.50
32506;DHT22;18955;51.224;8.482;2023-05-07T04:13:43;12.30;85.60
32506;DHT22;18955;51.224;8.482;2023-05-07T04:16:09;12.30;85.50
32506;DHT22;18955;51.224;8.482;2023-05-07T04:18:37;12.30;85.50
32506;DHT22;18955;51.224;8.482;2023-05-07T04:21:04;12.30;85.80
32506;DHT22;18955;51.224;8.482;2023-05-07T04:23:31;12.30;85.70
32506;DHT22;18955;51.224;8.482;2023-05-07T04:26:01;12.30;85.90
32506;DHT22;18955;51.224;8.482;2023-05-07T04:28:38;12.30;85.80
32506;DHT22;18955;51.224;8.482;2023-05-07T04:31:05;12.30;85.80
32506;DHT22;18955;51.224;8.482;2023-05-07T04:33:34;12.30;85.80
32506;DHT22;18955;51.224;8.482;2023-05-07T04:36:04;12.30;85.70
32506;DHT22;18955;51.224;8.482;2023-05-07T04:38:33;12.20;85.60
32506;DHT22;18955;51.224;8.482;2023-05-07T04:41:05;12.20;85.60
32506;DHT22;18955;51.224;8.482;2023-05-07T04:43:35;12.20;85.80
32506;DHT22;18955;51.224;8.482;2023-05-07T04:46:01;12.20;85.70
32506;DHT22;18955;51.224;8.482;2023-05-07T04:48:28;12.20;85.90
32506;DHT22;18955;51.224;8.482;2023-05-07T04:50:55;12.20;86.00
32506;DHT22;18955;51.224;8.482;2023-05-07T04:53:22;12.20;85.80
32506;DHT22;18955;51.224;8.482;2023-05-07T04:55:55;12.20;85.70
32506;DHT22;18955;51.224;8.482;2023-05-07T04:58:23;12.20;85.90
32506;DHT22;18955;51.224;8.482;2023-05-07T05:00:50;12.20;85.80
32506;DHT22;18955;51.224;8.482;2023-05-07T05:03:16;12.20;85.80
32506;DHT22;18955;51.224;8.482;2023-05-07T05:05:42;12.20;85.80
32506;DHT22;18955;51.224;8.482;2023-05-07T05:08:09;12.20;85.80
32506;DHT22;18955;51.224;8.482;2023-05-07T05:10:38;12.20;85.90
32506;DHT22;18955;51.224;8.482;2023-05-07T05:13:05;12.20;85.80
32506;DHT22;18955;51.224;8.482;2023-05-07T05:15:31;12.20;86.30
32506;DHT22;18955;51.224;8.482;2023-05-07T05:17:58;12.20;85.90
32506;DHT22;18955;51.224;8.482;2023-05-07T05:20:24;12.10;85.80
32506;DHT22;18955;51.224;8.482;2023-05-07T05:22:50;12.10;85.90
32506;DHT22;18955;51.224;8.482;2023-05-07T05:25:16;12.10;85.80
32506;DHT22;18955;51.224;8.482;2023-05-07T05:27:43;12.10;85.70
32506;DHT22;18955;51.224;8.482;2023-05-07T05:30:09;12.10;85.70
32506;DHT22;18955;51.224;8.482;2023-05-07T05:32:36;12.10;85.80
32506;DHT22;18955;51.224;8.482;2023-05-07T05:35:03;12.10;85.70
32506;DHT22;18955;51.224;8.482;2023-05-07T05:37:30;12.10;85.70
32506;DHT22;18955;51.224;8.482;2023-05-07T05:39:58;12.10;85.90
32506;DHT22;18955;51.224;8.482;2023-05-07T05:42:26;12.10;85.80
32506;DHT22;18955;51.224;8.482;2023-05-07T05:44:54;12.10;85.80
32506;DHT22;18955;51.224;8.482;2023-05-07T05:47:20;12.10;85.90
32506;DHT22;18955;51.224;8.482;2023-05-07T05:49:47;12.10;85.90
32506;DHT22;18955;51.224;8.482;2023-05-07T05:52:16;12.10;85.70
32506;DHT22;18955;51.224;8.482;2023-05-07T05:54:43;12.10;85.90
32506;DHT22;18955;51.224;8.482;2023-05-07T05:57:10;12.10;85.80
32506;DHT22;18955;51.224;8.482;2023-05-07T05:59:37;12.10;85.80
32506;DHT22;18955;51.224;8.482;2023-05-07T06:02:03;12.10;85.80
32506;DHT22;18955;51.224;8.482;2023-05-07T06:04:29;12.10;85.80
32506;DHT22;18955;51.224;8.482;2023-05-07T06:06:56;12.10;85.80
32506;DHT22;18955;51.224;8.482;2023-05-07T06:09:23;12.10;85.90
32506;DHT22;18955;51.224;8.482;2023-05-07T06:11:50;12.10;85.90
32506;DHT22;18955;51.224;8.482;2023-05-07T06:14:17;12.10;86.00
32506;DHT22;18955;51.224;8.482;2023-05-07T06:16:44;12.10;85.90
32506;DHT22;18955;51.224;8.482;2023-05-07T06:19:10;12.10;86.10
32506;DHT22;18955;51.224;8.482;2023-05-07T06:21:39;12.10;86.10
32506;DHT22;18955;51.224;8.482;2023-05-07T06:24:06;12.10;86.20
32506;DHT22;18955;51.224;8.482;2023-05-07T06:26:33;12.10;86.00
32506;DHT22;18955;51.224;8.482;2023-05-07T06:28:59;12.10;86.00
32506;DHT22;18955;51.224;8.482;2023-05-07T06:31:29;12.10;86.00
32506;DHT22;18955;51.224;8.482;2023-05-07T06:34:02;12.10;85.90
32506;DHT22;18955;51.224;8.482;2023-05-07T06:36:34;12.10;85.90
32506;DHT22;18955;51.224;8.482;2023-05-07T06:39:04;12.10;86.00
32506;DHT22;18955;51.224;8.482;2023-05-07T06:41:31;12.10;85.90
32506;DHT22;18955;51.224;8.482;2023-05-07T06:44:03;12.10;85.90
32506;DHT22;18955;51.224;8.482;2023-05-07T06:46:35;12.10;86.00
32506;DHT22;18955;51.224;8.482;2023-05-07T06:49:02;12.10;86.00
32506;DHT22;18955;51.224;8.482;2023-05-07T06:51:29;12.20;85.90
32506;DHT22;18955;51.224;8.482;2023-05-07T06:53:59;12.20;85.90
32506;DHT22;18955;51.224;8.482;2023-05-07T06:56:25;12.20;85.80
32506;DHT22;18955;51.224;8.482;2023-05-07T06:58:52;12.20;85.80
32506;DHT22;18955;51.224;8.482;2023-05-07T07:01:18;12.20;85.80
32506;DHT22;18955;51.224;8.482;2023-05-07T07:03:44;12.20;85.80
32506;DHT22;18955;51.224;8.482;2023-05-07T07:06:11;12.20;85.80
32506;DHT22;18955;51.224;8.482;2023-05-07T07:08:37;12.20;85.70
32506;DHT22;18955;51.224;8.482;2023-05-07T07:11:05;12.20;85.80
32506;DHT22;18955;51.224;8.482;2023-05-07T07:13:32;12.20;85.90
32506;DHT22;18955;51.224;8.482;2023-05-07T07:15:58;12.20;85.80
32506;DHT22;18955;51.224;8.482;2023-05-07T07:18:25;12.30;85.90
32506;DHT22;18955;51.224;8.482;2023-05-07T07:20:52;12.30;85.90
32506;DHT22;18955;51.224;8.482;2023-05-07T07:23:19;12.30;85.90
32506;DHT22;18955;51.224;8.482;2023-05-07T07:25:45;12.30;85.90
32506;DHT22;18955;51.224;8.482;2023-05-07T07:28:12;12.30;85.90
32506;DHT22;18955;51.224;8.482;2023-05-07T07:30:39;12.30;85.90
32506;DHT22;18955;51.224;8.482;2023-05-07T07:33:06;12.30;86.00
32506;DHT22;18955;51.224;8.482;2023-05-07T07:35:35;12.30;85.90
32506;DHT22;18955;51.224;8.482;2023-05-07T07:38:04;12.40;85.90
32506;DHT22;18955;51.224;8.482;2023-05-07T07:40:30;12.40;86.00
32506;DHT22;18955;51.224;8.482;2023-05-07T07:42:56;12.40;85.90
32506;DHT22;18955;51.224;8.482;2023-05-07T07:45:23;12.40;86.00
32506;DHT22;18955;51.224;8.482;2023-05-07T07:47:51;12.40;85.90
32506;DHT22;18955;51.224;8.482;2023-05-07T07:50:17;12.40;86.00
32506;DHT22;18955;51.224;8.482;2023-05-07T07:52:44;12.40;85.90
32506;DHT22;18955;51.224;8.482;2023-05-07T07:55:13;12.50;86.10
32506;DHT22;18955;51.224;8.482;2023-05-07T07:57:44;12.50;86.00
32506;DHT22;18955;51.224;8.482;2023-05-07T08:00:11;12.50;86.00
32506;DHT22;18955;51.224;8.482;2023-05-07T08:02:42;12.50;86.00
32506;DHT22;18955;51.224;8.482;2023-05-07T08:05:11;12.50;85.90
32506;DHT22;18955;51.224;8.482;2023-05-07T08:07:37;12.60;85.90
32506;DHT22;18955;51.224;8.482;2023-05-07T08:10:04;12.50;85.90
32506;DHT22;18955;51.224;8.482;2023-05-07T08:12:31;12.60;85.90
32506;DHT22;18955;51.224;8.482;2023-05-07T08:14:58;12.60;85.90
32506;DHT22;18955;51.224;8.482;2023-05-07T08:17:24;12.60;86.00
32506;DHT22;18955;51.224;8.482;2023-05-07T08:19:51;12.60;86.00
32506;DHT22;18955;51.224;8.482;2023-05-07T08:22:17;12.60;86.00
32506;DHT22;18955;51.224;8.482;2023-05-07T08:24:44;12.60;86.00
32506;DHT22;18955;51.224;8.482;2023-05-07T08:27:11;12.60;85.90
32506;DHT22;18955;51.224;8.482;2023-05-07T08:29:40;12.60;85.90
32506;DHT22;18955;51.224;8.482;2023-05-07T08:32:07;12.60;85.90
32506;DHT22;18955;51.224;8.482;2023-05-07T08:34:33;12.60;85.90
32506;DHT22;18955;51.224;8.482;2023-05-07T08:37:03;12.60;85.90
32506;DHT22;18955;51.224;8.482;2023-05-07T08:39:30;12.70;86.00
32506;DHT22;18955;51.224;8.482;2023-05-07T08:42:00;12.70;85.90
32506;DHT22;18955;51.224;8.482;2023-05-07T08:44:33;12.70;85.90
32506;DHT22;18955;51.224;8.482;2023-05-07T08:47:01;12.70;86.00
32506;DHT22;18955;51.224;8.482;2023-05-07T08:49:28;12.70;86.00
32506;DHT22;18955;51.224;8.482;2023-05-07T08:51:55;12.70;86.00
32506;DHT22;18955;51.224;8.482;2023-05-07T08:54:22;12.70;85.90
32506;DHT22;18955;51.224;8.482;2023-05-07T08:56:48;12.80;86.00
32506;DHT22;18955;51.224;8.482;2023-05-07T08:59:15;12.80;85.90
32506;DHT22;18955;51.224;8.482;2023-05-07T09:01:42;12.80;86.00
32506;DHT22;18955;51.224;8.482;2023-05-07T09:04:09;12.80;86.00
32506;DHT22;18955;51.224;8.482;2023-05-07T09:06:37;12.70;85.90
32506;DHT22;18955;51.224;8.482;2023-05-07T09:09:09;12.80;86.10
32506;DHT22;18955;51.224;8.482;2023-05-07T09:11:35;12.80;86.10
32506;DHT22;18955;51.224;8.482;2023-05-07T09:14:02;12.80;86.20
32506;DHT22;18955;51.224;8.482;2023-05-07T09:16:33;12.80;86.10
32506;DHT22;18955;51.224;8.482;2023-05-07T09:19:00;12.80;86.00
32506;DHT22;18955;51.224;8.482;2023-05-07T09:21:27;12.80;86.00
32506;DHT22;18955;51.224;8.482;2023-05-07T09:23:56;12.90;86.00
32506;DHT22;18955;51.224;8.482;2023-05-07T09:26:28;12.90;86.00
32506;DHT22;18955;51.224;8.482;2023-05-07T09:28:55;12.90;86.00
32506;DHT22;18955;51.224;8.482;2023-05-07T09:31:21;12.90;86.00
32506;DHT22;18955;51.224;8.482;2023-05-07T09:33:49;13.00;86.00
32506;DHT22;18955;51.224;8.482;2023-05-07T09:36:17;13.00;86.00
32506;DHT22;18955;51.224;8.482;2023-05-07T09:38:45;13.00;86.00
32506;DHT22;18955;51.224;8.482;2023-05-07T09:41:12;13.00;86.00
32506;DHT22;18955;51.224;8.482;2023-05-07T09:44:01;13.00;86.00
32506;DHT22;18955;51.224;8.482;2023-05-07T09:46:36;13.10;86.00
32506;DHT22;18955;51.224;8.482;2023-05-07T09:49:12;13.10;85.90
32506;DHT22;18955;51.224;8.482;2023-05-07T09:51:51;13.10;86.40
32506;DHT22;18955;51.224;8.482;2023-05-07T09:54:19;13.20;86.00
32506;DHT22;18955;51.224;8.482;2023-05-07T09:56:48;13.20;85.90
32506;DHT22;18955;51.224;8.482;2023-05-07T09:59:17;13.10;85.90
32506;DHT22;18955;51.224;8.482;2023-05-07T10:01:45;13.20;86.00
32506;DHT22;18955;51.224;8.482;2023-05-07T10:04:14;13.20;86.00
32506;DHT22;18955;51.224;8.482;2023-05-07T10:06:44;13.20;86.00
32506;DHT22;18955;51.224;8.482;2023-05-07T10:09:11;13.30;86.00
32506;DHT22;18955;51.224;8.482;2023-05-07T10:11:39;13.20;85.90
32506;DHT22;18955;51.224;8.482;2023-05-07T10:14:06;13.30;85.90
32506;DHT22;18955;51.224;8.482;2023-05-07T10:16:35;13.30;85.90
32506;DHT22;18955;51.224;8.482;2023-05-07T10:19:07;13.40;85.90
32506;DHT22;18955;51.224;8.482;2023-05-07T10:21:37;13.40;85.90
32506;DHT22;18955;51.224;8.482;2023-05-07T10:24:06;13.40;85.90
32506;DHT22;18955;51.224;8.482;2023-05-07T10:26:43;13.40;86.00
32506;DHT22;18955;51.224;8.482;2023-05-07T10:29:25;13.50;86.00
32506;DHT22;18955;51.224;8.482;2023-05-07T10:34:45;13.40;86.00
32506;DHT22;18955;51.224;8.482;2023-05-07T10:37:13;13.50;86.00
32506;DHT22;18955;51.224;8.482;2023-05-07T10:39:40;13.50;86.00
32506;DHT22;18955;51.224;8.482;2023-05-07T10:42:08;13.60;86.00
32506;DHT22;18955;51.224;8.482;2023-05-07T10:44:35;13.60;86.00
32506;DHT22;18955;51.224;8.482;2023-05-07T10:47:11;13.60;86.10
32506;DHT22;18955;51.224;8.482;2023-05-07T10:52:22;13.60;86.20
32506;DHT22;18955;51.224;8.482;2023-05-07T10:58:25;13.60;86.30
32506;DHT22;18955;51.224;8.482;2023-05-07T11:01:14;13.70;86.40
32506;DHT22;18955;51.224;8.482;2023-05-07T11:04:14;13.70;86.40
32506;DHT22;18955;51.224;8.482;2023-05-07T11:15:13;13.80;86.70
32506;DHT22;18955;51.224;8.482;2023-05-07T11:17:53;13.80;86.70
32506;DHT22;18955;51.224;8.482;2023-05-07T11:20:20;13.80;86.70
32506;DHT22;18955;51.224;8.482;2023-05-07T11:22:54;13.90;86.80
32506;DHT22;18955;51.224;8.482;2023-05-07T11:25:42;13.90;86.80
32506;DHT22;18955;51.224;8.482;2023-05-07T11:28:16;13.90;86.80
32506;DHT22;18955;51.224;8.482;2023-05-07T11:30:54;14.00;87.30
32506;DHT22;18955;51.224;8.482;2023-05-07T11:33:22;13.90;86.70
32506;DHT22;18955;51.224;8.482;2023-05-07T11:35:55;14.00;86.80
32506;DHT22;18955;51.224;8.482;2023-05-07T11:38:25;14.00;86.80
32506;DHT22;18955;51.224;8.482;2023-05-07T11:40:53;14.00;86.80
32506;DHT22;18955;51.224;8.482;2023-05-07T11:43:19;14.00;86.70
32506;DHT22;18955;51.224;8.482;2023-05-07T11:45:47;14.00;86.80
32506;DHT22;18955;51.224;8.482;2023-05-07T11:48:14;14.10;86.70
32506;DHT22;18955;51.224;8.482;2023-05-07T11:53:17;14.10;86.70
32506;DHT22;18955;51.224;8.482;2023-05-07T11:55:44;14.10;86.60
32506;DHT22;18955;51.224;8.482;2023-05-07T11:58:13;14.20;86.70
32506;DHT22;18955;51.224;8.482;2023-05-07T12:00:50;14.20;86.70
32506;DHT22;18955;51.224;8.482;2023-05-07T12:03:16;14.20;86.70
32506;DHT22;18955;51.224;8.482;2023-05-07T12:05:44;14.20;86.70
32506;DHT22;18955;51.224;8.482;2023-05-07T12:08:29;14.20;86.70
32506;DHT22;18955;51.224;8.482;2023-05-07T12:10:55;14.20;86.80
32506;DHT22;18955;51.224;8.482;2023-05-07T12:13:23;14.30;86.80
32506;DHT22;18955;51.224;8.482;2023-05-07T12:15:53;14.30;86.80
32506;DHT22;18955;51.224;8.482;2023-05-07T12:18:21;14.40;86.80
32506;DHT22;18955;51.224;8.482;2023-05-07T12:20:48;14.40;86.80
32506;DHT22;18955;51.224;8.482;2023-05-07T12:23:15;14.40;86.80
32506;DHT22;18955;51.224;8.482;2023-05-07T12:25:43;14.40;86.60
32506;DHT22;18955;51.224;8.482;2023-05-07T12:28:13;14.40;86.60
32506;DHT22;18955;51.224;8.482;2023-05-07T12:30:40;14.40;86.60
32506;DHT22;18955;51.224;8.482;2023-05-07T12:33:06;14.40;86.70
32506;DHT22;18955;51.224;8.482;2023-05-07T12:35:38;14.40;86.70
32506;DHT22;18955;51.224;8.482;2023-05-07T12:38:09;14.50;86.60
32506;DHT22;18955;51.224;8.482;2023-05-07T12:40:38;14.50;86.60
32506;DHT22;18955;51.224;8.482;2023-05-07T12:43:04;14.50;86.60
32506;DHT22;18955;51.224;8.482;2023-05-07T12:45:30;14.50;86.60
32506;DHT22;18955;51.224;8.482;2023-05-07T12:48:01;14.50;86.60
32506;DHT22;18955;51.224;8.482;2023-05-07T12:50:32;14.50;86.60
32506;DHT22;18955;51.224;8.482;2023-05-07T12:52:59;14.50;86.60
32506;DHT22;18955;51.224;8.482;2023-05-07T12:55:25;14.60;86.80
32506;DHT22;18955;51.224;8.482;2023-05-07T12:57:53;14.60;86.80
32506;DHT22;18955;51.224;8.482;2023-05-07T13:00:38;14.60;86.80
32506;DHT22;18955;51.224;8.482;2023-05-07T13:03:04;14.70;86.70
32506;DHT22;18955;51.224;8.482;2023-05-07T13:05:32;14.60;86.70
32506;DHT22;18955;51.224;8.482;2023-05-07T13:07:58;14.60;86.70
32506;DHT22;18955;51.224;8.482;2023-05-07T13:10:25;14.70;86.80
32506;DHT22;18955;51.224;8.482;2023-05-07T13:12:51;14.60;86.70
32506;DHT22;18955;51.224;8.482;2023-05-07T13:15:18;14.70;86.80
32506;DHT22;18955;51.224;8.482;2023-05-07T13:17:45;14.70;86.90
32506;DHT22;18955;51.224;8.482;2023-05-07T13:20:11;14.70;86.80
32506;DHT22;18955;51.224;8.482;2023-05-07T13:22:39;14.70;86.80
32506;DHT22;18955;51.224;8.482;2023-05-07T13:25:06;14.70;86.80
32506;DHT22;18955;51.224;8.482;2023-05-07T13:27:32;14.70;86.70
32506;DHT22;18955;51.224;8.482;2023-05-07T13:30:04;14.70;86.70
32506;DHT22;18955;51.224;8.482;2023-05-07T13:32:30;14.80;86.70
32506;DHT22;18955;51.224;8.482;2023-05-07T13:34:57;14.70;86.70
32506;DHT22;18955;51.224;8.482;2023-05-07T13:37:23;14.80;86.70
32506;DHT22;18955;51.224;8.482;2023-05-07T13:39:49;14.80;86.70
32506;DHT22;18955;51.224;8.482;2023-05-07T13:42:16;14.80;86.70
32506;DHT22;18955;51.224;8.482;2023-05-07T13:44:42;14.80;86.80
32506;DHT22;18955;51.224;8.482;2023-05-07T13:47:10;14.80;86.80
32506;DHT22;18955;51.224;8.482;2023-05-07T13:49:36;14.80;86.80
32506;DHT22;18955;51.224;8.482;2023-05-07T13:52:03;14.80;86.80
32506;DHT22;18955;51.224;8.482;2023-05-07T13:54:29;14.90;86.90
32506;DHT22;18955;51.224;8.482;2023-05-07T13:56:55;14.90;86.90
32506;DHT22;18955;51.224;8.482;2023-05-07T13:59:21;14.90;86.90
32506;DHT22;18955;51.224;8.482;2023-05-07T14:01:48;14.90;86.90
32506;DHT22;18955;51.224;8.482;2023-05-07T14:04:14;14.90;86.90
32506;DHT22;18955;51.224;8.482;2023-05-07T14:06:40;14.90;86.90
32506;DHT22;18955;51.224;8.482;2023-05-07T14:09:06;14.90;86.90
32506;DHT22;18955;51.224;8.482;2023-05-07T14:11:32;14.90;86.90
32506;DHT22;18955;51.224;8.482;2023-05-07T14:13:59;14.90;87.50
32506;DHT22;18955;51.224;8.482;2023-05-07T14:16:25;14.90;87.00
32506;DHT22;18955;51.224;8.482;2023-05-07T14:18:51;14.90;87.00
32506;DHT22;18955;51.224;8.482;2023-05-07T14:21:17;14.90;87.10
32506;DHT22;18955;51.224;8.482;2023-05-07T14:23:43;14.90;87.10
32506;DHT22;18955;51.224;8.482;2023-05-07T14:26:10;15.00;87.20
32506;DHT22;18955;51.224;8.482;2023-05-07T14:28:36;14.90;87.10
32506;DHT22;18955;51.224;8.482;2023-05-07T14:31:05;15.00;87.20
32506;DHT22;18955;51.224;8.482;2023-05-07T14:33:32;15.00;87.20
32506;DHT22;18955;51.224;8.482;2023-05-07T14:35:58;15.00;87.20
32506;DHT22;18955;51.224;8.482;2023-05-07T14:38:24;15.00;87.20
32506;DHT22;18955;51.224;8.482;2023-05-07T14:40:51;15.00;87.20
32506;DHT22;18955;51.224;8.482;2023-05-07T14:43:18;15.00;87.30
32506;DHT22;18955;51.224;8.482;2023-05-07T14:45:44;15.00;87.30
32506;DHT22;18955;51.224;8.482;2023-05-07T14:48:11;15.00;87.30
32506;DHT22;18955;51.224;8.482;2023-05-07T14:50:46;15.00;87.20
32506;DHT22;18955;51.224;8.482;2023-05-07T14:53:12;15.00;87.20
32506;DHT22;18955;51.224;8.482;2023-05-07T14:55:38;15.00;87.30
32506;DHT22;18955;51.224;8.482;2023-05-07T14:58:05;15.00;87.30
32506;DHT22;18955;51.224;8.482;2023-05-07T15:00:31;15.00;87.30
32506;DHT22;18955;51.224;8.482;2023-05-07T15:03:08;15.00;87.30
32506;DHT22;18955;51.224;8.482;2023-05-07T15:05:35;15.00;87.30
32506;DHT22;18955;51.224;8.482;2023-05-07T15:08:02;15.00;87.30
32506;DHT22;18955;51.224;8.482;2023-05-07T15:10:29;15.00;87.30
32506;DHT22;18955;51.224;8.482;2023-05-07T15:12:55;15.00;87.20
32506;DHT22;18955;51.224;8.482;2023-05-07T15:15:21;15.00;87.30
32506;DHT22;18955;51.224;8.482;2023-05-07T15:17:47;15.00;87.30
32506;DHT22;18955;51.224;8.482;2023-05-07T15:20:13;15.00;87.30
32506;DHT22;18955;51.224;8.482;2023-05-07T15:22:40;15.00;87.20
32506;DHT22;18955;51.224;8.482;2023-05-07T15:25:07;15.00;87.20
32506;DHT22;18955;51.224;8.482;2023-05-07T15:27:34;15.00;87.30
32506;DHT22;18955;51.224;8.482;2023-05-07T15:30:00;15.00;87.20
32506;DHT22;18955;51.224;8.482;2023-05-07T15:32:26;15.10;87.30
32506;DHT22;18955;51.224;8.482;2023-05-07T15:34:53;15.10;87.30
32506;DHT22;18955;51.224;8.482;2023-05-07T15:37:19;15.10;87.20
32506;DHT22;18955;51.224;8.482;2023-05-07T15:39:45;15.10;87.20
32506;DHT22;18955;51.224;8.482;2023-05-07T15:42:11;15.10;87.30
32506;DHT22;18955;51.224;8.482;2023-05-07T15:44:37;15.10;87.30
32506;DHT22;18955;51.224;8.482;2023-05-07T15:47:04;15.10;87.20
32506;DHT22;18955;51.224;8.482;2023-05-07T15:49:30;15.10;87.20
32506;DHT22;18955;51.224;8.482;2023-05-07T15:51:56;15.10;87.20
32506;DHT22;18955;51.224;8.482;2023-05-07T15:54:23;15.10;87.20